createdAt,value
2022-09-14T00:02:55.906Z,17.89
2022-09-14T00:07:59.803Z,18.64
2022-09-14T00:13:02.299Z,19.05
2022-09-14T00:18:05.715Z,19.30
2022-09-14T00:23:09.575Z,19.18
2022-09-14T00:28:12.343Z,19.46
2022-09-14T00:33:15.151Z,19.30
2022-09-14T00:38:18.964Z,19.04
2022-09-14T00:43:21.452Z,19.23
2022-09-14T00:48:26.769Z,19.05
2022-09-14T00:53:31.578Z,19.12
2022-09-14T00:58:34.209Z,19.32
2022-09-14T01:03:36.884Z,18.99
2022-09-14T01:08:54.368Z,19.27
2022-09-14T01:14:04.024Z,19.42
2022-09-14T01:19:11.386Z,19.39
2022-09-14T01:24:27.907Z,19.56
2022-09-14T01:29:34.786Z,19.58
2022-09-14T01:34:45.390Z,19.53
2022-09-14T01:39:53.037Z,18.99
2022-09-14T01:45:01.203Z,19.29
2022-09-14T01:50:08.803Z,19.28
2022-09-14T01:55:17.964Z,19.38
2022-09-14T02:00:23.181Z,19.18
2022-09-14T02:05:31.790Z,19.39
2022-09-14T02:10:34.916Z,19.07
2022-09-14T02:15:40.063Z,18.86
2022-09-14T02:20:48.038Z,18.95
2022-09-14T02:25:50.753Z,19.09
2022-09-14T02:31:04.754Z,19.24
2022-09-14T02:36:17.099Z,19.12
2022-09-14T02:41:31.467Z,18.96
2022-09-14T02:46:38.078Z,18.70
2022-09-14T02:51:47.154Z,18.75
2022-09-14T02:56:50.231Z,18.62
2022-09-14T03:01:54.151Z,18.65
2022-09-14T03:06:56.825Z,18.72
2022-09-14T03:11:59.317Z,18.57
2022-09-14T03:17:03.107Z,18.49
2022-09-14T03:22:05.632Z,18.50
2022-09-14T03:27:08.122Z,18.79
2022-09-14T03:32:12.411Z,18.65
2022-09-14T03:37:15.122Z,18.31
2022-09-14T03:42:17.628Z,17.88
2022-09-14T03:47:21.329Z,18.54
2022-09-14T03:52:23.866Z,18.57
2022-09-14T03:57:26.566Z,18.50
2022-09-14T04:02:30.476Z,18.41
2022-09-14T04:07:33.364Z,18.64
2022-09-14T04:12:36.392Z,18.39
2022-09-14T04:17:40.958Z,17.91
2022-09-14T04:22:43.490Z,17.78
2022-09-14T04:28:04.192Z,17.63
2022-09-14T04:33:12.982Z,18.11
2022-09-14T04:38:15.428Z,18.06
2022-09-14T04:43:17.867Z,18.38
2022-09-14T04:48:21.771Z,17.87
2022-09-14T04:53:24.549Z,18.43
2022-09-14T04:58:33.419Z,18.41
2022-09-14T05:03:38.931Z,18.64
2022-09-14T05:08:42.192Z,18.64
2022-09-14T05:13:49.494Z,18.65
2022-09-14T05:18:55.673Z,18.23
2022-09-14T05:23:59.916Z,18.01
2022-09-14T05:29:03.282Z,18.45
2022-09-14T05:34:07.230Z,18.22
2022-09-14T05:39:10.309Z,17.43
2022-09-14T05:44:12.736Z,16.53
2022-09-14T05:49:16.504Z,16.13
2022-09-14T05:54:19.181Z,15.80
2022-09-14T05:59:21.627Z,15.96
2022-09-14T06:04:25.703Z,16.98
2022-09-14T06:09:33.102Z,16.37
2022-09-14T06:14:35.971Z,15.69
2022-09-14T06:19:39.740Z,15.70
2022-09-14T06:24:42.340Z,15.75
2022-09-14T06:29:44.884Z,15.73
2022-09-14T06:34:48.625Z,16.22
2022-09-14T06:39:51.198Z,16.24
2022-09-14T06:44:53.681Z,17.08
2022-09-14T06:49:58.010Z,16.27
2022-09-14T06:55:00.448Z,16.36
2022-09-14T07:00:04.035Z,16.10
2022-09-14T07:05:08.547Z,16.13
2022-09-14T07:10:11.849Z,17.37
2022-09-14T07:15:14.598Z,17.73
2022-09-14T07:20:19.110Z,17.16
2022-09-14T07:25:21.595Z,17.82
2022-09-14T07:30:24.974Z,17.53
2022-09-14T07:35:28.820Z,16.54
2022-09-14T07:40:31.906Z,16.75
2022-09-14T07:45:36.166Z,17.13
2022-09-14T07:50:40.191Z,18.02
2022-09-14T07:55:43.175Z,18.22
2022-09-14T08:00:45.666Z,18.69
2022-09-14T08:05:49.681Z,19.02
2022-09-14T08:10:52.124Z,19.05
2022-09-14T08:15:54.605Z,18.93
2022-09-14T08:21:03.542Z,18.84
2022-09-14T08:26:07.386Z,19.01
2022-09-14T08:31:12.516Z,18.76
2022-09-14T08:36:18.274Z,19.17
2022-09-14T08:41:28.883Z,19.52
2022-09-14T08:46:34.164Z,19.46
2022-09-14T08:51:37.970Z,19.34
2022-09-14T08:56:44.787Z,19.52
2022-09-14T09:01:55.514Z,18.85
2022-09-14T09:07:06.465Z,19.02
2022-09-14T09:12:15.729Z,18.80
2022-09-14T09:17:22.786Z,18.94
2022-09-14T09:22:30.105Z,19.38
2022-09-14T09:27:32.821Z,19.32
2022-09-14T09:32:37.514Z,19.20
2022-09-14T09:37:41.767Z,19.45
2022-09-14T09:43:02.783Z,19.03
2022-09-14T09:48:10.616Z,19.49
2022-09-14T09:53:17.178Z,19.39
2022-09-14T09:58:28.776Z,19.70
2022-09-14T10:03:35.405Z,19.61
2022-09-14T10:08:44.513Z,19.29
2022-09-14T10:13:48.520Z,18.99
2022-09-14T10:18:53.599Z,17.78
2022-09-14T10:24:07.358Z,18.96
2022-09-14T10:29:27.072Z,19.33
2022-09-14T10:34:30.378Z,19.66
2022-09-14T10:39:40.759Z,19.35
2022-09-14T10:44:55.332Z,19.66
2022-09-14T10:50:12.427Z,19.84
2022-09-14T10:55:34.489Z,19.10
2022-09-14T11:00:44.827Z,17.44
2022-09-14T11:05:54.475Z,18.07
2022-09-14T11:11:15.759Z,18.81
2022-09-14T11:16:38.321Z,18.99
2022-09-14T11:21:50.307Z,19.42
2022-09-14T11:27:02.892Z,19.66
2022-09-14T11:32:20.925Z,19.46
2022-09-14T11:37:33.086Z,19.53
2022-09-14T11:42:44.629Z,19.60
2022-09-14T11:47:54.549Z,19.53
2022-09-14T11:53:04.934Z,19.00
2022-09-14T11:58:17.450Z,19.08
2022-09-14T12:03:21.582Z,18.99
2022-09-14T12:08:28.849Z,18.34
2022-09-14T12:13:33.075Z,18.64
2022-09-14T12:18:37.022Z,18.11
2022-09-14T12:23:45.098Z,17.72
2022-09-14T12:28:50.807Z,18.14
2022-09-14T12:34:18.721Z,18.14
2022-09-14T12:39:23.591Z,18.13
2022-09-14T12:44:36.394Z,18.39
2022-09-14T12:49:39.062Z,17.92
2022-09-14T12:54:52.834Z,17.98
2022-09-14T13:00:04.907Z,18.24
2022-09-14T13:05:14.698Z,18.26
2022-09-14T13:10:20.853Z,17.88
2022-09-14T13:15:27.875Z,17.83
2022-09-14T13:20:32.085Z,18.01
2022-09-14T13:25:39.156Z,17.90
2022-09-14T13:30:43.241Z,17.93
2022-09-14T13:35:48.838Z,18.13
2022-09-14T13:40:55.135Z,17.85
2022-09-14T13:45:59.332Z,18.01
2022-09-14T13:51:01.775Z,18.05
2022-09-14T13:56:31.512Z,18.01
2022-09-14T14:01:39.610Z,17.73
2022-09-14T14:06:42.207Z,18.27
2022-09-14T14:11:52.365Z,17.82
2022-09-14T14:17:24.873Z,16.98
2022-09-14T14:22:29.565Z,17.71
2022-09-14T14:27:35.221Z,17.72
2022-09-14T14:32:39.165Z,17.73
2022-09-14T14:37:41.852Z,17.91
2022-09-14T14:42:45.322Z,17.82
2022-09-14T14:47:50.882Z,17.98
2022-09-14T14:52:53.855Z,17.56
2022-09-14T14:58:00.547Z,17.31
2022-09-14T15:03:04.776Z,17.20
2022-09-14T15:08:07.136Z,17.76
2022-09-14T15:13:11.838Z,17.12
2022-09-14T15:18:15.551Z,17.32
2022-09-14T15:23:18.267Z,17.93
2022-09-14T15:28:20.847Z,17.65
2022-09-14T15:33:24.976Z,17.80
2022-09-14T15:38:27.512Z,17.95
2022-09-14T15:43:30.219Z,17.20
2022-09-14T15:48:36.323Z,17.10
2022-09-14T15:53:39.481Z,17.41
2022-09-14T15:58:47.246Z,17.29
2022-09-14T16:03:57.272Z,17.31
2022-09-14T16:09:01.699Z,17.15
2022-09-14T16:14:05.462Z,17.19
2022-09-14T16:19:11.616Z,17.36
2022-09-14T16:24:16.551Z,16.96
2022-09-14T16:29:21.117Z,17.19
2022-09-14T16:34:27.235Z,17.30
2022-09-14T16:39:31.749Z,17.17
2022-09-14T16:44:34.305Z,17.07
2022-09-14T16:49:39.389Z,16.98
2022-09-14T16:54:42.166Z,17.08
2022-09-14T16:59:44.586Z,16.91
2022-09-14T17:04:48.751Z,16.55
2022-09-14T17:09:51.327Z,16.68
2022-09-14T17:14:53.810Z,16.77
2022-09-14T17:19:57.579Z,16.33
2022-09-14T17:25:00.099Z,16.08
2022-09-14T17:30:02.608Z,16.20
2022-09-14T17:35:07.948Z,16.37
2022-09-14T17:40:11.434Z,16.68
2022-09-14T17:45:14.142Z,17.00
2022-09-14T17:50:19.614Z,17.01
2022-09-14T17:55:22.389Z,16.74
2022-09-14T18:00:24.831Z,16.74
2022-09-14T18:05:29.204Z,16.56
2022-09-14T18:10:31.833Z,16.45
2022-09-14T18:15:38.275Z,16.21
2022-09-14T18:20:44.203Z,16.56
2022-09-14T18:25:46.642Z,16.71
2022-09-14T18:30:51.609Z,16.73
2022-09-14T18:35:56.034Z,16.72
2022-09-14T18:41:04.887Z,16.59
2022-09-14T18:46:08.649Z,16.50
2022-09-14T18:51:15.385Z,16.58
2022-09-14T18:56:19.101Z,16.55
2022-09-14T19:01:21.801Z,16.47
2022-09-14T19:06:26.140Z,16.65
2022-09-14T19:11:31.010Z,16.47
2022-09-14T19:16:33.699Z,16.32
2022-09-14T19:21:37.644Z,16.05
2022-09-14T19:26:45.697Z,15.98
2022-09-14T19:31:51.837Z,16.29
2022-09-14T19:36:56.401Z,16.51
2022-09-14T19:41:59.092Z,16.45
2022-09-14T19:47:02.000Z,16.39
2022-09-14T19:52:05.937Z,16.47
2022-09-14T19:57:08.377Z,16.98
2022-09-14T20:02:11.686Z,16.91
2022-09-14T20:07:15.658Z,16.43
2022-09-14T20:12:18.138Z,16.52
2022-09-14T20:17:20.597Z,16.65
2022-09-14T20:22:24.826Z,16.47
2022-09-14T20:27:27.435Z,16.59
2022-09-14T20:32:31.222Z,16.66
2022-09-14T20:37:35.268Z,16.63
2022-09-14T20:42:37.829Z,16.82
2022-09-14T20:47:40.253Z,16.91
2022-09-14T20:52:43.995Z,16.97
2022-09-14T20:57:46.437Z,16.87
2022-09-14T21:02:52.021Z,16.46
2022-09-14T21:07:56.766Z,16.38
2022-09-14T21:12:59.305Z,16.52
2022-09-14T21:18:02.076Z,16.46
2022-09-14T21:23:06.366Z,16.68
2022-09-14T21:28:08.784Z,16.70
2022-09-14T21:33:11.335Z,16.80
2022-09-14T21:38:15.164Z,16.78
2022-09-14T21:43:17.644Z,16.70
2022-09-14T21:48:20.466Z,16.86
2022-09-14T21:53:24.235Z,16.78
2022-09-14T21:58:27.015Z,16.90
2022-09-14T22:03:30.314Z,16.88
2022-09-14T22:08:36.013Z,17.11
2022-09-14T22:13:39.238Z,16.83
2022-09-14T22:18:47.520Z,17.14
2022-09-14T22:23:52.882Z,17.09
2022-09-14T22:28:55.894Z,16.07
2022-09-14T22:33:59.345Z,16.47
2022-09-14T22:39:04.814Z,16.71
2022-09-14T22:44:08.384Z,16.46
2022-09-14T22:49:11.221Z,15.88
2022-09-14T22:54:14.978Z,16.14
2022-09-14T22:59:17.443Z,16.41
2022-09-14T23:04:19.896Z,16.51
2022-09-14T23:09:23.611Z,16.48
2022-09-14T23:14:26.534Z,16.29
2022-09-14T23:19:29.984Z,16.39
2022-09-14T23:24:33.849Z,15.47
2022-09-14T23:29:36.252Z,15.30
2022-09-14T23:34:38.671Z,15.53
2022-09-14T23:39:42.756Z,15.71
2022-09-14T23:44:45.302Z,16.08
2022-09-14T23:49:47.955Z,15.86
2022-09-14T23:54:51.726Z,16.02
2022-09-14T23:59:54.131Z,15.86
